KCVG/CVG METAR and TAF weather

Enter ICAO airport designator
Station Type Date Time Source
KCVG METAR 2020/06/01 14:52 UTC NOAA

KCVG 011452Z 12005KT 10SM CLR 18/06 A3034 RMK AO2 SLP266 T01830056 51003 $


Station Type Date Time Source
KCVG Decoded METAR 2020/06/01 14:52 UTC NOAA

CINCINNATI/NORTHERN KY INTERNATIONAL , KY, United States (KCVG) 39-03N 084-40W 269M
Jun 01, 2020 - 10:52 AM EDT / 2020.06.01 1452 UTC
Wind: from the ESE (120 degrees) at 6 MPH (5 KT):0
Visibility: 10 mile(s):0
Sky conditions: clear
Temperature: 64.9 F (18.3 C)
Dew Point: 42.1 F (5.6 C)
Relative Humidity: 43%
Pressure (altimeter): 30.34 in. Hg (1027 hPa)
Pressure tendency: 0.01 inches (0.3 hPa) higher than three hours ago
ob: KCVG 011452Z 12005KT 10SM CLR 18/06 A3034 RMK AO2 SLP266 T01830056 51003
cycle: 15

Station Type Date Time Source
KCVG TAF 2020/06/01 15:58 UTC NOAA

TAF
AMD KCVG 011458Z 0115/0218 13005KT P6SM SKC
FM011800 17006KT P6SM SCT150
FM020000 19006KT P6SM BKN150
FM021000 22006KT P6SM SCT200
FM021500 25012G21KT P6SM FEW250

Example: see airport list